sensor_id;sensor_type;location;lat;lon;timestamp;P1;durP1;ratioP1;P2;durP2;ratioP2
20908;SDS011;10614;53.198;6.570;2024-02-21T00:01:23;24.65;;;5.57;;
20908;SDS011;10614;53.198;6.570;2024-02-21T00:03:25;20.00;;;5.57;;
20908;SDS011;10614;53.198;6.570;2024-02-21T00:05:27;24.52;;;6.45;;
20908;SDS011;10614;53.198;6.570;2024-02-21T00:07:29;19.25;;;6.25;;
20908;SDS011;10614;53.198;6.570;2024-02-21T00:09:30;22.08;;;5.65;;
20908;SDS011;10614;53.198;6.570;2024-02-21T00:11:32;20.27;;;6.70;;
20908;SDS011;10614;53.198;6.570;2024-02-21T00:13:33;24.50;;;6.57;;
20908;SDS011;10614;53.198;6.570;2024-02-21T00:15:37;19.23;;;5.97;;
20908;SDS011;10614;53.198;6.570;2024-02-21T00:17:39;22.92;;;5.60;;
20908;SDS011;10614;53.198;6.570;2024-02-21T00:19:41;26.58;;;5.85;;
20908;SDS011;10614;53.198;6.570;2024-02-21T00:21:43;28.13;;;6.40;;
20908;SDS011;10614;53.198;6.570;2024-02-21T00:23:43;21.80;;;5.65;;
20908;SDS011;10614;53.198;6.570;2024-02-21T00:25:46;22.02;;;5.85;;
20908;SDS011;10614;53.198;6.570;2024-02-21T00:27:48;26.55;;;5.93;;
20908;SDS011;10614;53.198;6.570;2024-02-21T00:29:50;23.88;;;5.80;;
20908;SDS011;10614;53.198;6.570;2024-02-21T00:31:53;22.63;;;6.50;;
20908;SDS011;10614;53.198;6.570;2024-02-21T00:33:55;29.15;;;6.40;;
20908;SDS011;10614;53.198;6.570;2024-02-21T00:35:56;23.73;;;6.18;;
20908;SDS011;10614;53.198;6.570;2024-02-21T00:37:58;26.15;;;7.15;;
20908;SDS011;10614;53.198;6.570;2024-02-21T00:40:00;30.33;;;7.85;;
20908;SDS011;10614;53.198;6.570;2024-02-21T00:42:02;25.13;;;6.95;;
20908;SDS011;10614;53.198;6.570;2024-02-21T00:44:04;25.38;;;5.72;;
20908;SDS011;10614;53.198;6.570;2024-02-21T00:46:06;31.08;;;6.82;;
20908;SDS011;10614;53.198;6.570;2024-02-21T00:48:09;27.88;;;7.22;;
20908;SDS011;10614;53.198;6.570;2024-02-21T00:50:11;26.88;;;7.10;;
20908;SDS011;10614;53.198;6.570;2024-02-21T00:52:13;30.33;;;7.72;;
20908;SDS011;10614;53.198;6.570;2024-02-21T00:54:15;29.00;;;8.20;;
20908;SDS011;10614;53.198;6.570;2024-02-21T00:56:17;27.08;;;7.43;;
20908;SDS011;10614;53.198;6.570;2024-02-21T00:58:19;29.05;;;8.60;;
20908;SDS011;10614;53.198;6.570;2024-02-21T01:00:21;29.70;;;8.05;;
20908;SDS011;10614;53.198;6.570;2024-02-21T01:02:22;35.17;;;8.25;;
20908;SDS011;10614;53.198;6.570;2024-02-21T01:04:26;31.48;;;8.25;;
20908;SDS011;10614;53.198;6.570;2024-02-21T01:06:27;33.83;;;9.00;;
20908;SDS011;10614;53.198;6.570;2024-02-21T01:08:29;33.05;;;8.35;;
20908;SDS011;10614;53.198;6.570;2024-02-21T01:10:31;30.88;;;8.45;;
20908;SDS011;10614;53.198;6.570;2024-02-21T01:12:33;27.40;;;8.73;;
20908;SDS011;10614;53.198;6.570;2024-02-21T01:14:35;25.45;;;7.93;;
20908;SDS011;10614;53.198;6.570;2024-02-21T01:16:37;29.25;;;8.25;;
20908;SDS011;10614;53.198;6.570;2024-02-21T01:18:39;32.45;;;8.60;;
20908;SDS011;10614;53.198;6.570;2024-02-21T01:20:42;30.77;;;9.20;;
20908;SDS011;10614;53.198;6.570;2024-02-21T01:22:44;29.63;;;9.68;;
20908;SDS011;10614;53.198;6.570;2024-02-21T01:24:46;30.40;;;9.45;;
20908;SDS011;10614;53.198;6.570;2024-02-21T01:26:48;33.38;;;9.82;;
20908;SDS011;10614;53.198;6.570;2024-02-21T01:28:50;32.17;;;9.68;;
20908;SDS011;10614;53.198;6.570;2024-02-21T01:30:52;36.08;;;9.65;;
20908;SDS011;10614;53.198;6.570;2024-02-21T01:32:54;34.80;;;10.63;;
20908;SDS011;10614;53.198;6.570;2024-02-21T01:34:56;33.95;;;10.63;;
20908;SDS011;10614;53.198;6.570;2024-02-21T01:36:59;34.15;;;10.32;;
20908;SDS011;10614;53.198;6.570;2024-02-21T01:39:04;31.35;;;10.95;;
20908;SDS011;10614;53.198;6.570;2024-02-21T01:41:06;31.42;;;11.38;;
20908;SDS011;10614;53.198;6.570;2024-02-21T01:43:14;34.15;;;11.85;;
20908;SDS011;10614;53.198;6.570;2024-02-21T01:45:17;36.30;;;11.25;;
20908;SDS011;10614;53.198;6.570;2024-02-21T01:47:19;31.52;;;11.43;;
20908;SDS011;10614;53.198;6.570;2024-02-21T01:49:21;34.05;;;11.70;;
20908;SDS011;10614;53.198;6.570;2024-02-21T01:51:22;25.77;;;11.35;;
20908;SDS011;10614;53.198;6.570;2024-02-21T01:53:27;31.83;;;10.60;;
20908;SDS011;10614;53.198;6.570;2024-02-21T01:55:31;27.80;;;10.88;;
20908;SDS011;10614;53.198;6.570;2024-02-21T01:57:35;26.85;;;11.20;;
20908;SDS011;10614;53.198;6.570;2024-02-21T01:59:38;26.75;;;10.63;;
20908;SDS011;10614;53.198;6.570;2024-02-21T02:01:40;27.10;;;10.80;;
20908;SDS011;10614;53.198;6.570;2024-02-21T02:03:43;23.25;;;10.63;;
20908;SDS011;10614;53.198;6.570;2024-02-21T02:05:47;24.25;;;10.10;;
20908;SDS011;10614;53.198;6.570;2024-02-21T02:07:49;25.10;;;11.63;;
20908;SDS011;10614;53.198;6.570;2024-02-21T02:09:52;25.90;;;11.13;;
20908;SDS011;10614;53.198;6.570;2024-02-21T02:11:54;25.08;;;11.55;;
20908;SDS011;10614;53.198;6.570;2024-02-21T02:13:58;20.50;;;10.47;;
20908;SDS011;10614;53.198;6.570;2024-02-21T02:15:59;30.80;;;11.10;;
20908;SDS011;10614;53.198;6.570;2024-02-21T02:18:01;30.95;;;12.40;;
20908;SDS011;10614;53.198;6.570;2024-02-21T02:20:02;28.55;;;11.38;;
20908;SDS011;10614;53.198;6.570;2024-02-21T02:22:07;30.38;;;11.38;;
20908;SDS011;10614;53.198;6.570;2024-02-21T02:24:16;28.35;;;10.43;;
20908;SDS011;10614;53.198;6.570;2024-02-21T02:26:18;26.67;;;10.48;;
20908;SDS011;10614;53.198;6.570;2024-02-21T02:28:20;24.75;;;10.20;;
20908;SDS011;10614;53.198;6.570;2024-02-21T02:30:23;30.13;;;9.93;;
20908;SDS011;10614;53.198;6.570;2024-02-21T02:32:23;26.73;;;9.15;;
20908;SDS011;10614;53.198;6.570;2024-02-21T02:34:25;23.90;;;8.70;;
20908;SDS011;10614;53.198;6.570;2024-02-21T02:36:27;28.27;;;8.95;;
20908;SDS011;10614;53.198;6.570;2024-02-21T02:38:28;24.33;;;8.60;;
20908;SDS011;10614;53.198;6.570;2024-02-21T02:40:33;24.80;;;8.13;;
20908;SDS011;10614;53.198;6.570;2024-02-21T02:42:34;29.13;;;8.70;;
20908;SDS011;10614;53.198;6.570;2024-02-21T02:44:36;30.10;;;8.13;;
20908;SDS011;10614;53.198;6.570;2024-02-21T02:46:40;29.35;;;8.27;;
20908;SDS011;10614;53.198;6.570;2024-02-21T02:48:42;30.08;;;8.55;;
20908;SDS011;10614;53.198;6.570;2024-02-21T02:50:45;33.25;;;9.85;;
20908;SDS011;10614;53.198;6.570;2024-02-21T02:52:47;27.30;;;8.70;;
20908;SDS011;10614;53.198;6.570;2024-02-21T02:54:48;35.90;;;10.55;;
20908;SDS011;10614;53.198;6.570;2024-02-21T02:56:53;28.48;;;9.40;;
20908;SDS011;10614;53.198;6.570;2024-02-21T02:58:55;34.15;;;8.70;;
20908;SDS011;10614;53.198;6.570;2024-02-21T03:00:57;43.13;;;10.05;;
20908;SDS011;10614;53.198;6.570;2024-02-21T03:02:59;39.08;;;10.40;;
20908;SDS011;10614;53.198;6.570;2024-02-21T03:05:00;33.47;;;10.18;;
20908;SDS011;10614;53.198;6.570;2024-02-21T03:07:02;40.70;;;10.80;;
20908;SDS011;10614;53.198;6.570;2024-02-21T03:09:03;45.47;;;10.82;;
20908;SDS011;10614;53.198;6.570;2024-02-21T03:11:08;38.35;;;11.73;;
20908;SDS011;10614;53.198;6.570;2024-02-21T03:13:12;41.05;;;10.85;;
20908;SDS011;10614;53.198;6.570;2024-02-21T03:15:14;33.92;;;11.10;;
20908;SDS011;10614;53.198;6.570;2024-02-21T03:17:16;35.70;;;10.02;;
20908;SDS011;10614;53.198;6.570;2024-02-21T03:19:18;39.92;;;10.95;;
20908;SDS011;10614;53.198;6.570;2024-02-21T03:21:19;44.97;;;10.48;;
20908;SDS011;10614;53.198;6.570;2024-02-21T03:23:22;33.05;;;10.77;;
20908;SDS011;10614;53.198;6.570;2024-02-21T03:25:23;45.33;;;10.65;;
20908;SDS011;10614;53.198;6.570;2024-02-21T03:27:25;32.15;;;10.05;;
20908;SDS011;10614;53.198;6.570;2024-02-21T03:29:29;44.13;;;11.68;;
20908;SDS011;10614;53.198;6.570;2024-02-21T03:31:29;39.47;;;11.45;;
20908;SDS011;10614;53.198;6.570;2024-02-21T03:33:31;35.80;;;11.30;;
20908;SDS011;10614;53.198;6.570;2024-02-21T03:35:33;39.58;;;11.07;;
20908;SDS011;10614;53.198;6.570;2024-02-21T03:37:35;43.75;;;11.15;;
20908;SDS011;10614;53.198;6.570;2024-02-21T03:39:36;33.70;;;10.73;;
20908;SDS011;10614;53.198;6.570;2024-02-21T03:41:38;38.55;;;11.25;;
20908;SDS011;10614;53.198;6.570;2024-02-21T03:43:38;43.65;;;11.63;;
20908;SDS011;10614;53.198;6.570;2024-02-21T03:45:42;40.67;;;11.07;;
20908;SDS011;10614;53.198;6.570;2024-02-21T03:47:44;41.78;;;11.27;;
20908;SDS011;10614;53.198;6.570;2024-02-21T03:49:45;39.38;;;10.98;;
20908;SDS011;10614;53.198;6.570;2024-02-21T03:51:47;34.88;;;10.75;;
20908;SDS011;10614;53.198;6.570;2024-02-21T03:53:48;37.72;;;11.38;;
20908;SDS011;10614;53.198;6.570;2024-02-21T03:55:49;38.75;;;11.23;;
20908;SDS011;10614;53.198;6.570;2024-02-21T03:57:51;44.08;;;11.57;;
20908;SDS011;10614;53.198;6.570;2024-02-21T03:59:52;38.38;;;11.68;;
20908;SDS011;10614;53.198;6.570;2024-02-21T04:01:55;32.17;;;9.40;;
20908;SDS011;10614;53.198;6.570;2024-02-21T04:03:57;44.33;;;11.18;;
20908;SDS011;10614;53.198;6.570;2024-02-21T04:05:58;29.30;;;10.80;;
20908;SDS011;10614;53.198;6.570;2024-02-21T04:08:02;40.17;;;10.10;;
20908;SDS011;10614;53.198;6.570;2024-02-21T04:10:06;38.53;;;10.35;;
20908;SDS011;10614;53.198;6.570;2024-02-21T04:12:08;36.80;;;10.68;;
20908;SDS011;10614;53.198;6.570;2024-02-21T04:14:10;39.85;;;10.95;;
20908;SDS011;10614;53.198;6.570;2024-02-21T04:16:12;42.50;;;11.57;;
20908;SDS011;10614;53.198;6.570;2024-02-21T04:18:16;46.20;;;12.32;;
20908;SDS011;10614;53.198;6.570;2024-02-21T04:20:17;39.38;;;11.45;;
20908;SDS011;10614;53.198;6.570;2024-02-21T04:22:19;41.88;;;12.32;;
20908;SDS011;10614;53.198;6.570;2024-02-21T04:24:20;41.92;;;11.40;;
20908;SDS011;10614;53.198;6.570;2024-02-21T04:26:22;38.60;;;11.93;;
20908;SDS011;10614;53.198;6.570;2024-02-21T04:28:24;42.33;;;13.05;;
20908;SDS011;10614;53.198;6.570;2024-02-21T04:30:26;49.90;;;12.10;;
20908;SDS011;10614;53.198;6.570;2024-02-21T04:32:28;38.45;;;11.73;;
20908;SDS011;10614;53.198;6.570;2024-02-21T04:34:31;42.95;;;12.68;;
20908;SDS011;10614;53.198;6.570;2024-02-21T04:36:33;41.17;;;12.25;;
20908;SDS011;10614;53.198;6.570;2024-02-21T04:38:35;48.75;;;11.68;;
20908;SDS011;10614;53.198;6.570;2024-02-21T04:40:39;38.00;;;11.82;;
20908;SDS011;10614;53.198;6.570;2024-02-21T04:42:39;38.42;;;12.80;;
20908;SDS011;10614;53.198;6.570;2024-02-21T04:44:41;47.20;;;13.40;;
20908;SDS011;10614;53.198;6.570;2024-02-21T04:46:43;52.60;;;13.27;;
20908;SDS011;10614;53.198;6.570;2024-02-21T04:48:45;41.55;;;12.20;;
20908;SDS011;10614;53.198;6.570;2024-02-21T04:50:48;41.00;;;11.82;;
20908;SDS011;10614;53.198;6.570;2024-02-21T04:52:50;40.00;;;12.20;;
20908;SDS011;10614;53.198;6.570;2024-02-21T04:54:52;36.42;;;11.00;;
20908;SDS011;10614;53.198;6.570;2024-02-21T04:56:54;46.83;;;13.45;;
20908;SDS011;10614;53.198;6.570;2024-02-21T04:58:56;37.72;;;11.60;;
20908;SDS011;10614;53.198;6.570;2024-02-21T05:00:58;37.45;;;12.07;;
20908;SDS011;10614;53.198;6.570;2024-02-21T05:02:59;48.05;;;12.85;;
20908;SDS011;10614;53.198;6.570;2024-02-21T05:05:01;42.22;;;12.63;;
20908;SDS011;10614;53.198;6.570;2024-02-21T05:07:04;41.47;;;13.40;;
20908;SDS011;10614;53.198;6.570;2024-02-21T05:09:06;42.28;;;12.73;;
20908;SDS011;10614;53.198;6.570;2024-02-21T05:11:09;36.22;;;11.65;;
20908;SDS011;10614;53.198;6.570;2024-02-21T05:13:11;43.72;;;12.68;;
20908;SDS011;10614;53.198;6.570;2024-02-21T05:15:13;38.63;;;11.10;;
20908;SDS011;10614;53.198;6.570;2024-02-21T05:17:15;44.08;;;11.35;;
20908;SDS011;10614;53.198;6.570;2024-02-21T05:19:17;27.55;;;10.35;;
20908;SDS011;10614;53.198;6.570;2024-02-21T05:21:19;38.63;;;11.77;;
20908;SDS011;10614;53.198;6.570;2024-02-21T05:23:22;46.75;;;11.65;;
20908;SDS011;10614;53.198;6.570;2024-02-21T05:25:24;33.28;;;11.02;;
20908;SDS011;10614;53.198;6.570;2024-02-21T05:27:26;41.90;;;11.02;;
20908;SDS011;10614;53.198;6.570;2024-02-21T05:29:28;38.97;;;10.80;;
20908;SDS011;10614;53.198;6.570;2024-02-21T05:31:42;31.45;;;10.05;;
20908;SDS011;10614;53.198;6.570;2024-02-21T05:33:56;36.60;;;10.48;;
20908;SDS011;10614;53.198;6.570;2024-02-21T05:35:58;46.67;;;11.40;;
20908;SDS011;10614;53.198;6.570;2024-02-21T05:38:00;33.78;;;10.38;;
20908;SDS011;10614;53.198;6.570;2024-02-21T05:42:13;29.55;;;9.40;;
20908;SDS011;10614;53.198;6.570;2024-02-21T05:44:14;34.47;;;9.68;;
20908;SDS011;10614;53.198;6.570;2024-02-21T05:46:18;38.67;;;10.10;;
20908;SDS011;10614;53.198;6.570;2024-02-21T05:48:21;37.92;;;10.10;;
20908;SDS011;10614;53.198;6.570;2024-02-21T05:50:24;33.47;;;10.25;;
20908;SDS011;10614;53.198;6.570;2024-02-21T05:52:27;40.13;;;10.80;;
20908;SDS011;10614;53.198;6.570;2024-02-21T05:54:28;45.65;;;11.38;;
20908;SDS011;10614;53.198;6.570;2024-02-21T05:56:32;35.83;;;11.02;;
20908;SDS011;10614;53.198;6.570;2024-02-21T05:58:32;37.03;;;10.60;;
20908;SDS011;10614;53.198;6.570;2024-02-21T06:00:35;35.42;;;11.05;;
20908;SDS011;10614;53.198;6.570;2024-02-21T06:02:36;40.65;;;10.60;;
20908;SDS011;10614;53.198;6.570;2024-02-21T06:04:37;42.20;;;9.80;;
20908;SDS011;10614;53.198;6.570;2024-02-21T06:06:39;44.58;;;11.20;;
20908;SDS011;10614;53.198;6.570;2024-02-21T06:08:40;36.40;;;10.65;;
20908;SDS011;10614;53.198;6.570;2024-02-21T06:10:42;49.35;;;11.13;;
20908;SDS011;10614;53.198;6.570;2024-02-21T06:12:46;33.85;;;10.73;;
20908;SDS011;10614;53.198;6.570;2024-02-21T06:14:48;35.03;;;10.35;;
20908;SDS011;10614;53.198;6.570;2024-02-21T06:16:50;37.45;;;10.02;;
20908;SDS011;10614;53.198;6.570;2024-02-21T06:18:52;36.33;;;9.85;;
20908;SDS011;10614;53.198;6.570;2024-02-21T06:20:54;33.40;;;9.82;;
20908;SDS011;10614;53.198;6.570;2024-02-21T06:22:56;45.42;;;10.70;;
20908;SDS011;10614;53.198;6.570;2024-02-21T06:24:58;36.80;;;11.13;;
20908;SDS011;10614;53.198;6.570;2024-02-21T06:27:00;41.83;;;11.85;;
20908;SDS011;10614;53.198;6.570;2024-02-21T06:29:04;36.83;;;10.48;;
20908;SDS011;10614;53.198;6.570;2024-02-21T06:31:06;37.55;;;10.88;;
20908;SDS011;10614;53.198;6.570;2024-02-21T06:33:07;30.92;;;10.15;;
20908;SDS011;10614;53.198;6.570;2024-02-21T06:35:09;34.47;;;11.32;;
20908;SDS011;10614;53.198;6.570;2024-02-21T06:37:10;34.85;;;10.75;;
20908;SDS011;10614;53.198;6.570;2024-02-21T06:39:12;36.58;;;10.88;;
20908;SDS011;10614;53.198;6.570;2024-02-21T06:41:15;35.15;;;10.88;;
20908;SDS011;10614;53.198;6.570;2024-02-21T06:43:19;37.88;;;10.48;;
20908;SDS011;10614;53.198;6.570;2024-02-21T06:45:23;32.17;;;10.48;;
20908;SDS011;10614;53.198;6.570;2024-02-21T06:47:25;29.15;;;10.75;;
20908;SDS011;10614;53.198;6.570;2024-02-21T06:49:27;44.08;;;12.48;;
20908;SDS011;10614;53.198;6.570;2024-02-21T06:51:30;45.92;;;12.40;;
20908;SDS011;10614;53.198;6.570;2024-02-21T06:53:32;44.90;;;11.73;;
20908;SDS011;10614;53.198;6.570;2024-02-21T06:55:35;33.60;;;11.30;;
20908;SDS011;10614;53.198;6.570;2024-02-21T06:57:36;38.67;;;11.77;;
20908;SDS011;10614;53.198;6.570;2024-02-21T06:59:39;37.15;;;11.68;;
20908;SDS011;10614;53.198;6.570;2024-02-21T07:01:45;48.15;;;12.85;;
20908;SDS011;10614;53.198;6.570;2024-02-21T07:03:47;32.13;;;11.70;;
20908;SDS011;10614;53.198;6.570;2024-02-21T07:05:48;33.78;;;11.82;;
20908;SDS011;10614;53.198;6.570;2024-02-21T07:07:50;35.88;;;12.70;;
20908;SDS011;10614;53.198;6.570;2024-02-21T07:09:52;42.10;;;13.05;;
20908;SDS011;10614;53.198;6.570;2024-02-21T07:11:54;46.35;;;14.13;;
20908;SDS011;10614;53.198;6.570;2024-02-21T07:13:56;41.30;;;13.45;;
20908;SDS011;10614;53.198;6.570;2024-02-21T07:15:58;56.10;;;17.30;;
20908;SDS011;10614;53.198;6.570;2024-02-21T07:18:02;65.68;;;19.50;;
20908;SDS011;10614;53.198;6.570;2024-02-21T07:20:06;55.17;;;18.50;;
20908;SDS011;10614;53.198;6.570;2024-02-21T07:22:08;69.82;;;21.35;;
20908;SDS011;10614;53.198;6.570;2024-02-21T07:24:10;66.18;;;22.63;;
20908;SDS011;10614;53.198;6.570;2024-02-21T07:26:12;67.47;;;22.42;;
20908;SDS011;10614;53.198;6.570;2024-02-21T07:28:14;76.68;;;24.20;;
20908;SDS011;10614;53.198;6.570;2024-02-21T07:30:16;75.90;;;21.73;;
20908;SDS011;10614;53.198;6.570;2024-02-21T07:32:20;81.65;;;23.00;;
20908;SDS011;10614;53.198;6.570;2024-02-21T07:34:22;72.53;;;21.88;;
20908;SDS011;10614;53.198;6.570;2024-02-21T07:36:28;76.30;;;22.20;;
20908;SDS011;10614;53.198;6.570;2024-02-21T07:38:31;70.05;;;21.17;;
20908;SDS011;10614;53.198;6.570;2024-02-21T07:40:33;58.25;;;22.42;;
20908;SDS011;10614;53.198;6.570;2024-02-21T07:42:35;59.75;;;19.88;;
20908;SDS011;10614;53.198;6.570;2024-02-21T07:44:37;67.30;;;20.95;;
20908;SDS011;10614;53.198;6.570;2024-02-21T07:46:39;61.60;;;18.55;;
20908;SDS011;10614;53.198;6.570;2024-02-21T07:48:41;59.05;;;17.85;;
20908;SDS011;10614;53.198;6.570;2024-02-21T07:50:43;59.80;;;17.35;;
20908;SDS011;10614;53.198;6.570;2024-02-21T07:52:45;58.78;;;14.45;;
20908;SDS011;10614;53.198;6.570;2024-02-21T07:54:47;47.30;;;14.50;;
20908;SDS011;10614;53.198;6.570;2024-02-21T07:56:49;48.38;;;14.25;;
20908;SDS011;10614;53.198;6.570;2024-02-21T07:58:53;44.40;;;13.90;;
20908;SDS011;10614;53.198;6.570;2024-02-21T08:00:55;45.53;;;11.93;;
20908;SDS011;10614;53.198;6.570;2024-02-21T08:02:57;35.70;;;10.77;;
20908;SDS011;10614;53.198;6.570;2024-02-21T08:04:59;38.92;;;10.93;;
20908;SDS011;10614;53.198;6.570;2024-02-21T08:07:02;38.15;;;10.10;;
20908;SDS011;10614;53.198;6.570;2024-02-21T08:09:04;35.88;;;9.98;;
20908;SDS011;10614;53.198;6.570;2024-02-21T08:11:06;34.75;;;9.93;;
20908;SDS011;10614;53.198;6.570;2024-02-21T08:13:08;30.95;;;8.88;;
20908;SDS011;10614;53.198;6.570;2024-02-21T08:15:10;34.25;;;8.40;;
20908;SDS011;10614;53.198;6.570;2024-02-21T08:17:12;24.13;;;9.15;;
20908;SDS011;10614;53.198;6.570;2024-02-21T08:19:14;29.30;;;9.23;;
20908;SDS011;10614;53.198;6.570;2024-02-21T08:21:17;29.27;;;8.25;;
20908;SDS011;10614;53.198;6.570;2024-02-21T08:23:23;28.45;;;8.13;;
20908;SDS011;10614;53.198;6.570;2024-02-21T08:25:25;31.35;;;8.43;;
20908;SDS011;10614;53.198;6.570;2024-02-21T08:27:26;32.85;;;9.02;;
20908;SDS011;10614;53.198;6.570;2024-02-21T08:29:28;27.85;;;9.13;;
20908;SDS011;10614;53.198;6.570;2024-02-21T08:31:29;29.48;;;8.88;;
20908;SDS011;10614;53.198;6.570;2024-02-21T08:33:32;23.20;;;8.70;;
20908;SDS011;10614;53.198;6.570;2024-02-21T08:35:34;30.15;;;8.68;;
20908;SDS011;10614;53.198;6.570;2024-02-21T08:37:36;31.63;;;9.07;;
20908;SDS011;10614;53.198;6.570;2024-02-21T08:39:38;27.10;;;8.38;;
20908;SDS011;10614;53.198;6.570;2024-02-21T08:41:40;29.05;;;8.25;;
20908;SDS011;10614;53.198;6.570;2024-02-21T08:43:42;28.67;;;9.90;;
20908;SDS011;10614;53.198;6.570;2024-02-21T08:45:44;26.60;;;8.88;;
20908;SDS011;10614;53.198;6.570;2024-02-21T08:47:46;19.52;;;8.50;;
20908;SDS011;10614;53.198;6.570;2024-02-21T08:49:48;27.63;;;9.30;;
20908;SDS011;10614;53.198;6.570;2024-02-21T08:51:48;31.65;;;10.95;;
20908;SDS011;10614;53.198;6.570;2024-02-21T08:53:50;26.70;;;11.00;;
20908;SDS011;10614;53.198;6.570;2024-02-21T08:55:55;26.75;;;10.55;;
20908;SDS011;10614;53.198;6.570;2024-02-21T08:57:57;26.75;;;10.98;;
20908;SDS011;10614;53.198;6.570;2024-02-21T08:59:59;24.65;;;11.63;;
20908;SDS011;10614;53.198;6.570;2024-02-21T09:02:01;37.72;;;13.52;;
20908;SDS011;10614;53.198;6.570;2024-02-21T09:04:04;34.38;;;13.63;;
20908;SDS011;10614;53.198;6.570;2024-02-21T09:06:06;30.98;;;13.05;;
20908;SDS011;10614;53.198;6.570;2024-02-21T09:08:08;33.85;;;13.63;;
20908;SDS011;10614;53.198;6.570;2024-02-21T09:10:10;34.25;;;14.70;;
20908;SDS011;10614;53.198;6.570;2024-02-21T09:12:13;31.95;;;16.25;;
20908;SDS011;10614;53.198;6.570;2024-02-21T09:14:15;28.10;;;14.98;;
20908;SDS011;10614;53.198;6.570;2024-02-21T09:16:17;35.40;;;15.60;;
20908;SDS011;10614;53.198;6.570;2024-02-21T09:18:19;43.72;;;18.40;;
20908;SDS011;10614;53.198;6.570;2024-02-21T09:20:21;30.73;;;16.50;;
20908;SDS011;10614;53.198;6.570;2024-02-21T09:22:23;32.80;;;16.65;;
20908;SDS011;10614;53.198;6.570;2024-02-21T09:24:25;34.35;;;17.38;;
20908;SDS011;10614;53.198;6.570;2024-02-21T09:26:26;42.10;;;17.77;;
20908;SDS011;10614;53.198;6.570;2024-02-21T09:28:29;39.17;;;18.02;;
20908;SDS011;10614;53.198;6.570;2024-02-21T09:30:31;38.75;;;18.38;;
20908;SDS011;10614;53.198;6.570;2024-02-21T09:32:34;32.58;;;19.27;;
20908;SDS011;10614;53.198;6.570;2024-02-21T09:34:36;36.95;;;18.75;;
20908;SDS011;10614;53.198;6.570;2024-02-21T09:36:37;39.67;;;18.75;;
20908;SDS011;10614;53.198;6.570;2024-02-21T09:38:40;42.00;;;19.88;;
20908;SDS011;10614;53.198;6.570;2024-02-21T09:40:43;38.38;;;19.05;;
20908;SDS011;10614;53.198;6.570;2024-02-21T09:42:46;40.70;;;19.35;;
20908;SDS011;10614;53.198;6.570;2024-02-21T09:44:49;36.85;;;17.42;;
20908;SDS011;10614;53.198;6.570;2024-02-21T09:46:52;35.95;;;19.08;;
20908;SDS011;10614;53.198;6.570;2024-02-21T09:49:03;35.75;;;19.45;;
20908;SDS011;10614;53.198;6.570;2024-02-21T09:51:11;39.10;;;22.05;;
20908;SDS011;10614;53.198;6.570;2024-02-21T09:53:14;35.33;;;19.73;;
20908;SDS011;10614;53.198;6.570;2024-02-21T09:55:18;35.70;;;18.02;;
20908;SDS011;10614;53.198;6.570;2024-02-21T09:57:20;37.63;;;18.75;;
20908;SDS011;10614;53.198;6.570;2024-02-21T09:59:25;36.05;;;18.73;;
20908;SDS011;10614;53.198;6.570;2024-02-21T10:03:33;31.52;;;18.33;;
20908;SDS011;10614;53.198;6.570;2024-02-21T10:05:35;35.00;;;18.27;;
20908;SDS011;10614;53.198;6.570;2024-02-21T10:07:39;30.88;;;18.17;;
20908;SDS011;10614;53.198;6.570;2024-02-21T10:09:40;31.17;;;19.45;;
20908;SDS011;10614;53.198;6.570;2024-02-21T10:11:42;33.28;;;19.40;;
20908;SDS011;10614;53.198;6.570;2024-02-21T10:13:44;35.30;;;18.27;;
20908;SDS011;10614;53.198;6.570;2024-02-21T10:15:46;32.28;;;18.83;;
20908;SDS011;10614;53.198;6.570;2024-02-21T10:17:57;28.75;;;18.85;;
20908;SDS011;10614;53.198;6.570;2024-02-21T10:20:06;36.00;;;19.48;;
20908;SDS011;10614;53.198;6.570;2024-02-21T10:22:09;33.25;;;18.80;;
20908;SDS011;10614;53.198;6.570;2024-02-21T10:24:11;31.48;;;18.90;;
20908;SDS011;10614;53.198;6.570;2024-02-21T10:26:14;34.45;;;20.35;;
20908;SDS011;10614;53.198;6.570;2024-02-21T10:28:16;34.92;;;20.60;;
20908;SDS011;10614;53.198;6.570;2024-02-21T10:30:23;36.53;;;21.30;;
20908;SDS011;10614;53.198;6.570;2024-02-21T10:32:25;35.25;;;21.85;;
20908;SDS011;10614;53.198;6.570;2024-02-21T10:34:29;35.60;;;22.90;;
20908;SDS011;10614;53.198;6.570;2024-02-21T10:36:31;42.08;;;23.52;;
20908;SDS011;10614;53.198;6.570;2024-02-21T10:38:35;42.42;;;23.33;;
20908;SDS011;10614;53.198;6.570;2024-02-21T10:40:37;39.50;;;23.45;;
20908;SDS011;10614;53.198;6.570;2024-02-21T10:42:39;41.03;;;22.27;;
20908;SDS011;10614;53.198;6.570;2024-02-21T10:44:41;38.88;;;21.90;;
20908;SDS011;10614;53.198;6.570;2024-02-21T10:46:44;41.45;;;23.42;;
20908;SDS011;10614;53.198;6.570;2024-02-21T10:48:47;41.03;;;23.92;;
20908;SDS011;10614;53.198;6.570;2024-02-21T10:50:56;37.40;;;22.65;;
20908;SDS011;10614;53.198;6.570;2024-02-21T10:53:01;41.38;;;23.45;;
20908;SDS011;10614;53.198;6.570;2024-02-21T10:55:12;41.20;;;24.05;;
20908;SDS011;10614;53.198;6.570;2024-02-21T10:57:21;41.30;;;23.08;;
20908;SDS011;10614;53.198;6.570;2024-02-21T10:59:23;39.05;;;23.20;;
20908;SDS011;10614;53.198;6.570;2024-02-21T11:01:26;38.28;;;24.23;;
20908;SDS011;10614;53.198;6.570;2024-02-21T11:03:31;36.88;;;23.48;;
20908;SDS011;10614;53.198;6.570;2024-02-21T11:05:34;38.90;;;22.50;;
20908;SDS011;10614;53.198;6.570;2024-02-21T11:07:37;36.50;;;21.33;;
20908;SDS011;10614;53.198;6.570;2024-02-21T11:09:40;35.00;;;21.70;;
20908;SDS011;10614;53.198;6.570;2024-02-21T11:11:43;42.33;;;23.38;;
20908;SDS011;10614;53.198;6.570;2024-02-21T11:13:45;40.47;;;21.98;;
20908;SDS011;10614;53.198;6.570;2024-02-21T11:15:47;37.08;;;21.65;;
20908;SDS011;10614;53.198;6.570;2024-02-21T11:17:53;38.67;;;22.33;;
20908;SDS011;10614;53.198;6.570;2024-02-21T11:19:56;40.65;;;20.98;;
20908;SDS011;10614;53.198;6.570;2024-02-21T11:21:59;32.95;;;21.05;;
20908;SDS011;10614;53.198;6.570;2024-02-21T11:24:03;36.83;;;21.52;;
20908;SDS011;10614;53.198;6.570;2024-02-21T11:26:06;31.92;;;20.13;;
20908;SDS011;10614;53.198;6.570;2024-02-21T11:28:08;40.10;;;20.23;;
20908;SDS011;10614;53.198;6.570;2024-02-21T11:30:11;31.25;;;18.70;;
20908;SDS011;10614;53.198;6.570;2024-02-21T11:32:14;32.60;;;19.27;;
20908;SDS011;10614;53.198;6.570;2024-02-21T11:34:17;31.65;;;19.33;;
20908;SDS011;10614;53.198;6.570;2024-02-21T11:36:23;30.67;;;18.50;;
20908;SDS011;10614;53.198;6.570;2024-02-21T11:38:26;28.45;;;19.42;;
20908;SDS011;10614;53.198;6.570;2024-02-21T11:40:29;29.88;;;18.60;;
20908;SDS011;10614;53.198;6.570;2024-02-21T11:42:31;29.73;;;18.17;;
20908;SDS011;10614;53.198;6.570;2024-02-21T11:44:34;28.67;;;18.40;;
20908;SDS011;10614;53.198;6.570;2024-02-21T11:46:38;28.60;;;17.33;;
20908;SDS011;10614;53.198;6.570;2024-02-21T11:48:40;30.52;;;17.98;;
20908;SDS011;10614;53.198;6.570;2024-02-21T11:50:52;31.08;;;16.88;;
20908;SDS011;10614;53.198;6.570;2024-02-21T11:52:55;24.50;;;16.23;;
20908;SDS011;10614;53.198;6.570;2024-02-21T11:54:56;26.52;;;16.83;;
20908;SDS011;10614;53.198;6.570;2024-02-21T11:57:06;30.33;;;16.63;;
20908;SDS011;10614;53.198;6.570;2024-02-21T11:59:08;28.77;;;17.20;;
20908;SDS011;10614;53.198;6.570;2024-02-21T12:01:10;26.27;;;16.85;;
20908;SDS011;10614;53.198;6.570;2024-02-21T12:03:12;25.45;;;16.45;;